sensor_id;sensor_type;location;lat;lon;timestamp;temperature;humidity
7530;DHT22;3806;52.270;10.544;2022-12-04T00:00:08;1.40;99.90
7530;DHT22;3806;52.270;10.544;2022-12-04T00:02:34;1.40;99.90
7530;DHT22;3806;52.270;10.544;2022-12-04T00:05:01;1.30;99.90
7530;DHT22;3806;52.270;10.544;2022-12-04T00:07:26;1.40;99.90
7530;DHT22;3806;52.270;10.544;2022-12-04T00:09:52;1.40;99.90
7530;DHT22;3806;52.270;10.544;2022-12-04T00:12:18;1.40;99.90
7530;DHT22;3806;52.270;10.544;2022-12-04T00:14:43;1.40;99.90
7530;DHT22;3806;52.270;10.544;2022-12-04T00:17:09;1.40;99.90
7530;DHT22;3806;52.270;10.544;2022-12-04T00:19:34;1.50;99.90
7530;DHT22;3806;52.270;10.544;2022-12-04T00:22:00;1.50;99.90
7530;DHT22;3806;52.270;10.544;2022-12-04T00:24:25;1.50;99.90
7530;DHT22;3806;52.270;10.544;2022-12-04T00:26:51;1.50;99.90
7530;DHT22;3806;52.270;10.544;2022-12-04T00:29:17;1.50;99.90
7530;DHT22;3806;52.270;10.544;2022-12-04T00:31:43;1.50;99.90
7530;DHT22;3806;52.270;10.544;2022-12-04T00:34:10;1.40;99.90
7530;DHT22;3806;52.270;10.544;2022-12-04T00:36:36;1.40;99.90
7530;DHT22;3806;52.270;10.544;2022-12-04T00:39:02;1.40;99.90
7530;DHT22;3806;52.270;10.544;2022-12-04T00:41:30;1.40;99.90
7530;DHT22;3806;52.270;10.544;2022-12-04T00:43:56;1.30;99.90
7530;DHT22;3806;52.270;10.544;2022-12-04T00:46:22;1.40;99.90
7530;DHT22;3806;52.270;10.544;2022-12-04T00:48:49;1.40;99.90
7530;DHT22;3806;52.270;10.544;2022-12-04T00:51:18;1.30;99.90
7530;DHT22;3806;52.270;10.544;2022-12-04T00:53:44;1.40;99.90
7530;DHT22;3806;52.270;10.544;2022-12-04T00:56:13;1.30;99.90
7530;DHT22;3806;52.270;10.544;2022-12-04T00:58:40;1.40;99.90
7530;DHT22;3806;52.270;10.544;2022-12-04T01:01:12;1.30;99.90
7530;DHT22;3806;52.270;10.544;2022-12-04T01:03:38;1.30;99.90
7530;DHT22;3806;52.270;10.544;2022-12-04T01:06:05;1.40;99.90
7530;DHT22;3806;52.270;10.544;2022-12-04T01:08:31;1.40;99.90
7530;DHT22;3806;52.270;10.544;2022-12-04T01:10:57;1.40;99.90
7530;DHT22;3806;52.270;10.544;2022-12-04T01:13:23;1.30;99.90
7530;DHT22;3806;52.270;10.544;2022-12-04T01:15:49;1.40;99.90
7530;DHT22;3806;52.270;10.544;2022-12-04T01:18:16;1.40;99.90
7530;DHT22;3806;52.270;10.544;2022-12-04T01:20:49;1.40;99.90
7530;DHT22;3806;52.270;10.544;2022-12-04T01:23:16;1.50;99.90
7530;DHT22;3806;52.270;10.544;2022-12-04T01:25:56;1.40;99.90
7530;DHT22;3806;52.270;10.544;2022-12-04T01:28:23;1.40;99.90
7530;DHT22;3806;52.270;10.544;2022-12-04T01:31:03;1.50;99.90
7530;DHT22;3806;52.270;10.544;2022-12-04T01:33:30;1.50;99.90
7530;DHT22;3806;52.270;10.544;2022-12-04T01:35:58;1.50;99.90
7530;DHT22;3806;52.270;10.544;2022-12-04T01:38:25;1.50;99.90
7530;DHT22;3806;52.270;10.544;2022-12-04T01:40:51;1.40;99.90
7530;DHT22;3806;52.270;10.544;2022-12-04T01:43:17;1.40;99.90
7530;DHT22;3806;52.270;10.544;2022-12-04T01:45:53;1.40;99.90
7530;DHT22;3806;52.270;10.544;2022-12-04T01:51:11;1.50;99.90
7530;DHT22;3806;52.270;10.544;2022-12-04T01:53:41;1.50;99.90
7530;DHT22;3806;52.270;10.544;2022-12-04T01:56:08;1.50;99.90
7530;DHT22;3806;52.270;10.544;2022-12-04T01:58:41;1.40;99.90
7530;DHT22;3806;52.270;10.544;2022-12-04T02:01:09;1.40;99.90
7530;DHT22;3806;52.270;10.544;2022-12-04T02:03:35;1.50;99.90
7530;DHT22;3806;52.270;10.544;2022-12-04T02:06:01;1.50;99.90
7530;DHT22;3806;52.270;10.544;2022-12-04T02:08:27;1.40;99.90
7530;DHT22;3806;52.270;10.544;2022-12-04T02:13:56;1.40;99.90
7530;DHT22;3806;52.270;10.544;2022-12-04T02:16:40;1.40;99.90
7530;DHT22;3806;52.270;10.544;2022-12-04T02:19:48;1.30;99.90
7530;DHT22;3806;52.270;10.544;2022-12-04T02:35:58;1.40;99.90
7530;DHT22;3806;52.270;10.544;2022-12-04T02:41:59;1.50;99.90
7530;DHT22;3806;52.270;10.544;2022-12-04T02:45:04;1.40;99.90
7530;DHT22;3806;52.270;10.544;2022-12-04T02:47:51;1.50;99.90
7530;DHT22;3806;52.270;10.544;2022-12-04T02:50:22;1.50;99.90
7530;DHT22;3806;52.270;10.544;2022-12-04T02:56:55;1.40;99.90
7530;DHT22;3806;52.270;10.544;2022-12-04T03:06:41;1.50;99.90
7530;DHT22;3806;52.270;10.544;2022-12-04T03:20:24;1.50;99.90
7530;DHT22;3806;52.270;10.544;2022-12-04T03:30:35;1.50;99.90
7530;DHT22;3806;52.270;10.544;2022-12-04T03:39:54;1.60;99.90
7530;DHT22;3806;52.270;10.544;2022-12-04T03:46:34;1.50;99.90
7530;DHT22;3806;52.270;10.544;2022-12-04T04:20:22;1.70;99.90
7530;DHT22;3806;52.270;10.544;2022-12-04T04:39:11;1.70;99.90
7530;DHT22;3806;52.270;10.544;2022-12-04T04:42:41;1.70;99.90
7530;DHT22;3806;52.270;10.544;2022-12-04T05:50:13;1.90;99.90
7530;DHT22;3806;52.270;10.544;2022-12-04T06:14:37;1.80;99.90
7530;DHT22;3806;52.270;10.544;2022-12-04T06:17:38;1.80;99.90
7530;DHT22;3806;52.270;10.544;2022-12-04T06:21:12;1.90;99.90
7530;DHT22;3806;52.270;10.544;2022-12-04T06:23:56;1.90;99.90
7530;DHT22;3806;52.270;10.544;2022-12-04T06:26:47;1.90;99.90
7530;DHT22;3806;52.270;10.544;2022-12-04T06:29:21;1.90;99.90
7530;DHT22;3806;52.270;10.544;2022-12-04T06:31:47;1.90;99.90
7530;DHT22;3806;52.270;10.544;2022-12-04T06:34:12;1.90;99.90
7530;DHT22;3806;52.270;10.544;2022-12-04T06:36:38;1.90;99.90
7530;DHT22;3806;52.270;10.544;2022-12-04T06:39:04;1.80;99.90
7530;DHT22;3806;52.270;10.544;2022-12-04T06:41:30;1.80;99.90
7530;DHT22;3806;52.270;10.544;2022-12-04T06:43:56;1.80;99.90
7530;DHT22;3806;52.270;10.544;2022-12-04T06:46:24;1.80;99.90
7530;DHT22;3806;52.270;10.544;2022-12-04T06:48:50;1.80;99.90
7530;DHT22;3806;52.270;10.544;2022-12-04T06:51:24;1.80;99.90
7530;DHT22;3806;52.270;10.544;2022-12-04T06:53:51;1.70;99.90
7530;DHT22;3806;52.270;10.544;2022-12-04T06:56:19;1.80;99.90
7530;DHT22;3806;52.270;10.544;2022-12-04T06:58:46;1.80;99.90
7530;DHT22;3806;52.270;10.544;2022-12-04T07:01:15;1.80;99.90
7530;DHT22;3806;52.270;10.544;2022-12-04T07:03:41;1.80;99.90
7530;DHT22;3806;52.270;10.544;2022-12-04T07:08:36;1.80;99.90
7530;DHT22;3806;52.270;10.544;2022-12-04T07:11:02;1.80;99.90
7530;DHT22;3806;52.270;10.544;2022-12-04T07:13:27;1.70;99.90
7530;DHT22;3806;52.270;10.544;2022-12-04T07:15:53;1.80;99.90
7530;DHT22;3806;52.270;10.544;2022-12-04T07:18:18;1.80;99.90
7530;DHT22;3806;52.270;10.544;2022-12-04T07:20:44;1.80;99.90
7530;DHT22;3806;52.270;10.544;2022-12-04T07:23:09;1.80;99.90
7530;DHT22;3806;52.270;10.544;2022-12-04T07:25:38;1.90;99.90
7530;DHT22;3806;52.270;10.544;2022-12-04T07:28:04;1.80;99.90
7530;DHT22;3806;52.270;10.544;2022-12-04T07:30:33;1.90;99.90
7530;DHT22;3806;52.270;10.544;2022-12-04T07:33:01;1.90;99.90
7530;DHT22;3806;52.270;10.544;2022-12-04T07:35:26;1.90;99.90
7530;DHT22;3806;52.270;10.544;2022-12-04T07:37:52;1.90;99.90
7530;DHT22;3806;52.270;10.544;2022-12-04T07:40:17;1.90;99.90
7530;DHT22;3806;52.270;10.544;2022-12-04T07:42:43;1.80;99.90
7530;DHT22;3806;52.270;10.544;2022-12-04T07:45:09;1.90;99.90
7530;DHT22;3806;52.270;10.544;2022-12-04T07:47:35;1.80;99.90
7530;DHT22;3806;52.270;10.544;2022-12-04T07:50:01;1.80;99.90
7530;DHT22;3806;52.270;10.544;2022-12-04T07:52:27;1.80;99.90
7530;DHT22;3806;52.270;10.544;2022-12-04T07:54:53;1.80;99.90
7530;DHT22;3806;52.270;10.544;2022-12-04T07:57:18;1.80;99.90
7530;DHT22;3806;52.270;10.544;2022-12-04T07:59:44;1.90;99.90
7530;DHT22;3806;52.270;10.544;2022-12-04T08:02:11;1.80;99.90
7530;DHT22;3806;52.270;10.544;2022-12-04T08:04:37;1.80;99.90
7530;DHT22;3806;52.270;10.544;2022-12-04T08:07:02;1.90;99.90
7530;DHT22;3806;52.270;10.544;2022-12-04T08:09:28;1.90;99.90
7530;DHT22;3806;52.270;10.544;2022-12-04T08:11:57;1.90;99.90
7530;DHT22;3806;52.270;10.544;2022-12-04T08:14:22;1.90;99.90
7530;DHT22;3806;52.270;10.544;2022-12-04T08:16:48;2.00;99.90
7530;DHT22;3806;52.270;10.544;2022-12-04T08:19:14;2.10;99.90
7530;DHT22;3806;52.270;10.544;2022-12-04T08:21:39;2.00;99.90
7530;DHT22;3806;52.270;10.544;2022-12-04T08:24:05;1.90;99.90
7530;DHT22;3806;52.270;10.544;2022-12-04T08:26:31;1.90;99.90
7530;DHT22;3806;52.270;10.544;2022-12-04T08:28:59;2.00;99.90
7530;DHT22;3806;52.270;10.544;2022-12-04T08:31:27;1.90;99.90
7530;DHT22;3806;52.270;10.544;2022-12-04T08:33:55;1.90;99.90
7530;DHT22;3806;52.270;10.544;2022-12-04T08:36:22;2.00;99.90
7530;DHT22;3806;52.270;10.544;2022-12-04T08:38:47;2.00;99.90
7530;DHT22;3806;52.270;10.544;2022-12-04T08:41:16;2.10;99.90
7530;DHT22;3806;52.270;10.544;2022-12-04T08:43:42;2.10;99.90
7530;DHT22;3806;52.270;10.544;2022-12-04T08:46:10;2.10;99.90
7530;DHT22;3806;52.270;10.544;2022-12-04T08:48:36;2.10;99.90
7530;DHT22;3806;52.270;10.544;2022-12-04T08:51:03;2.20;99.90
7530;DHT22;3806;52.270;10.544;2022-12-04T08:53:29;2.20;99.90
7530;DHT22;3806;52.270;10.544;2022-12-04T08:55:55;2.30;99.90
7530;DHT22;3806;52.270;10.544;2022-12-04T08:58:22;2.40;99.90
7530;DHT22;3806;52.270;10.544;2022-12-04T09:00:48;2.30;99.90
7530;DHT22;3806;52.270;10.544;2022-12-04T09:03:18;2.40;99.90
7530;DHT22;3806;52.270;10.544;2022-12-04T09:05:44;2.20;99.90
7530;DHT22;3806;52.270;10.544;2022-12-04T09:08:14;2.30;99.90
7530;DHT22;3806;52.270;10.544;2022-12-04T09:10:41;2.20;99.90
7530;DHT22;3806;52.270;10.544;2022-12-04T09:13:07;2.10;99.90
7530;DHT22;3806;52.270;10.544;2022-12-04T09:15:33;2.20;99.90
7530;DHT22;3806;52.270;10.544;2022-12-04T09:17:59;2.10;99.90
7530;DHT22;3806;52.270;10.544;2022-12-04T09:20:25;2.10;99.90
7530;DHT22;3806;52.270;10.544;2022-12-04T09:22:51;2.10;99.90
7530;DHT22;3806;52.270;10.544;2022-12-04T09:25:17;2.10;99.90
7530;DHT22;3806;52.270;10.544;2022-12-04T09:27:42;2.10;99.90
7530;DHT22;3806;52.270;10.544;2022-12-04T09:30:10;2.10;99.90
7530;DHT22;3806;52.270;10.544;2022-12-04T09:32:36;2.10;99.90
7530;DHT22;3806;52.270;10.544;2022-12-04T09:35:02;2.10;99.90
7530;DHT22;3806;52.270;10.544;2022-12-04T09:37:28;2.10;99.90
7530;DHT22;3806;52.270;10.544;2022-12-04T09:39:53;2.10;99.90
7530;DHT22;3806;52.270;10.544;2022-12-04T09:42:23;2.10;99.90
7530;DHT22;3806;52.270;10.544;2022-12-04T09:45:00;2.00;99.90
7530;DHT22;3806;52.270;10.544;2022-12-04T09:47:32;2.00;99.90
7530;DHT22;3806;52.270;10.544;2022-12-04T09:52:58;2.00;99.90
7530;DHT22;3806;52.270;10.544;2022-12-04T09:58:16;2.00;99.90
7530;DHT22;3806;52.270;10.544;2022-12-04T10:00:46;2.10;99.90
7530;DHT22;3806;52.270;10.544;2022-12-04T10:03:18;2.10;99.90
7530;DHT22;3806;52.270;10.544;2022-12-04T10:05:48;2.10;99.90
7530;DHT22;3806;52.270;10.544;2022-12-04T10:08:33;2.10;99.90
7530;DHT22;3806;52.270;10.544;2022-12-04T10:25:33;2.10;99.90
7530;DHT22;3806;52.270;10.544;2022-12-04T10:30:37;2.10;99.90
7530;DHT22;3806;52.270;10.544;2022-12-04T10:35:56;2.20;99.90
7530;DHT22;3806;52.270;10.544;2022-12-04T10:41:03;2.20;99.90
7530;DHT22;3806;52.270;10.544;2022-12-04T10:43:35;2.30;99.90
7530;DHT22;3806;52.270;10.544;2022-12-04T10:46:03;2.30;99.90
7530;DHT22;3806;52.270;10.544;2022-12-04T10:48:34;2.30;99.90
7530;DHT22;3806;52.270;10.544;2022-12-04T10:51:01;2.30;99.90
7530;DHT22;3806;52.270;10.544;2022-12-04T10:53:33;2.30;99.90
7530;DHT22;3806;52.270;10.544;2022-12-04T10:56:11;2.30;99.90
7530;DHT22;3806;52.270;10.544;2022-12-04T10:58:37;2.30;99.90
7530;DHT22;3806;52.270;10.544;2022-12-04T11:01:06;2.30;99.90
7530;DHT22;3806;52.270;10.544;2022-12-04T11:03:33;2.30;99.90
7530;DHT22;3806;52.270;10.544;2022-12-04T11:06:01;2.30;99.90
7530;DHT22;3806;52.270;10.544;2022-12-04T11:08:43;2.30;99.90
7530;DHT22;3806;52.270;10.544;2022-12-04T11:11:22;2.40;99.90
7530;DHT22;3806;52.270;10.544;2022-12-04T11:13:48;2.40;99.90
7530;DHT22;3806;52.270;10.544;2022-12-04T11:16:35;2.40;99.90
7530;DHT22;3806;52.270;10.544;2022-12-04T11:19:01;2.40;99.90
7530;DHT22;3806;52.270;10.544;2022-12-04T11:21:29;2.40;99.90
7530;DHT22;3806;52.270;10.544;2022-12-04T11:23:58;2.40;99.90
7530;DHT22;3806;52.270;10.544;2022-12-04T11:26:32;2.40;99.90
7530;DHT22;3806;52.270;10.544;2022-12-04T11:29:00;2.40;99.90
7530;DHT22;3806;52.270;10.544;2022-12-04T11:31:26;2.40;99.90
7530;DHT22;3806;52.270;10.544;2022-12-04T11:34:07;2.40;99.90
7530;DHT22;3806;52.270;10.544;2022-12-04T11:36:36;2.40;99.90
7530;DHT22;3806;52.270;10.544;2022-12-04T11:41:40;2.50;99.90
7530;DHT22;3806;52.270;10.544;2022-12-04T11:44:06;2.50;99.90
7530;DHT22;3806;52.270;10.544;2022-12-04T11:46:54;2.60;99.90
7530;DHT22;3806;52.270;10.544;2022-12-04T11:49:22;2.60;99.90
7530;DHT22;3806;52.270;10.544;2022-12-04T12:00:08;2.50;99.90
7530;DHT22;3806;52.270;10.544;2022-12-04T12:03:19;2.50;99.90
7530;DHT22;3806;52.270;10.544;2022-12-04T12:11:08;2.50;99.90
7530;DHT22;3806;52.270;10.544;2022-12-04T12:18:57;2.60;99.90
7530;DHT22;3806;52.270;10.544;2022-12-04T12:21:27;2.50;99.90
7530;DHT22;3806;52.270;10.544;2022-12-04T12:24:24;2.50;99.90
7530;DHT22;3806;52.270;10.544;2022-12-04T12:27:05;2.50;99.90
7530;DHT22;3806;52.270;10.544;2022-12-04T12:34:51;2.60;99.90
7530;DHT22;3806;52.270;10.544;2022-12-04T12:40:05;2.50;99.90
7530;DHT22;3806;52.270;10.544;2022-12-04T12:42:42;2.50;99.90
7530;DHT22;3806;52.270;10.544;2022-12-04T12:48:31;2.60;99.90
7530;DHT22;3806;52.270;10.544;2022-12-04T12:54:18;2.60;99.90
7530;DHT22;3806;52.270;10.544;2022-12-04T12:57:00;2.60;99.90
7530;DHT22;3806;52.270;10.544;2022-12-04T12:59:27;2.70;99.90
7530;DHT22;3806;52.270;10.544;2022-12-04T13:02:05;2.70;99.90
7530;DHT22;3806;52.270;10.544;2022-12-04T13:12:23;2.60;99.90
7530;DHT22;3806;52.270;10.544;2022-12-04T13:14:50;2.50;99.90
7530;DHT22;3806;52.270;10.544;2022-12-04T13:17:35;2.50;99.90
7530;DHT22;3806;52.270;10.544;2022-12-04T13:20:04;2.50;99.90
7530;DHT22;3806;52.270;10.544;2022-12-04T13:22:38;2.50;99.90
7530;DHT22;3806;52.270;10.544;2022-12-04T13:28:16;2.50;99.90
7530;DHT22;3806;52.270;10.544;2022-12-04T13:30:53;2.50;99.90
7530;DHT22;3806;52.270;10.544;2022-12-04T13:41:42;2.60;99.90
7530;DHT22;3806;52.270;10.544;2022-12-04T13:44:19;2.50;99.90
7530;DHT22;3806;52.270;10.544;2022-12-04T13:47:07;2.50;99.90
7530;DHT22;3806;52.270;10.544;2022-12-04T13:49:35;2.60;99.90
7530;DHT22;3806;52.270;10.544;2022-12-04T13:52:03;2.60;99.90
7530;DHT22;3806;52.270;10.544;2022-12-04T13:54:32;2.60;99.90
7530;DHT22;3806;52.270;10.544;2022-12-04T13:59:39;2.50;99.90
7530;DHT22;3806;52.270;10.544;2022-12-04T14:07:28;2.60;99.90
7530;DHT22;3806;52.270;10.544;2022-12-04T14:09:56;2.50;99.90
7530;DHT22;3806;52.270;10.544;2022-12-04T14:12:26;2.50;99.90
7530;DHT22;3806;52.270;10.544;2022-12-04T14:14:57;2.60;99.90
7530;DHT22;3806;52.270;10.544;2022-12-04T14:17:28;2.60;99.90
7530;DHT22;3806;52.270;10.544;2022-12-04T14:19:57;2.60;99.90
7530;DHT22;3806;52.270;10.544;2022-12-04T14:22:44;2.70;99.90
7530;DHT22;3806;52.270;10.544;2022-12-04T14:27:47;2.60;99.90
7530;DHT22;3806;52.270;10.544;2022-12-04T14:30:27;2.60;99.90
7530;DHT22;3806;52.270;10.544;2022-12-04T14:33:13;2.60;99.90
7530;DHT22;3806;52.270;10.544;2022-12-04T14:36:04;2.60;99.90
7530;DHT22;3806;52.270;10.544;2022-12-04T14:38:31;2.60;99.90
7530;DHT22;3806;52.270;10.544;2022-12-04T14:40:57;2.60;99.90
7530;DHT22;3806;52.270;10.544;2022-12-04T14:43:27;2.60;99.90
7530;DHT22;3806;52.270;10.544;2022-12-04T14:46:12;2.50;99.90
7530;DHT22;3806;52.270;10.544;2022-12-04T14:51:42;2.60;99.90
7530;DHT22;3806;52.270;10.544;2022-12-04T14:57:22;2.60;99.90
7530;DHT22;3806;52.270;10.544;2022-12-04T14:59:52;2.60;99.90
7530;DHT22;3806;52.270;10.544;2022-12-04T15:02:30;2.70;99.90
7530;DHT22;3806;52.270;10.544;2022-12-04T15:04:58;2.60;99.90
7530;DHT22;3806;52.270;10.544;2022-12-04T15:07:28;2.60;99.90
7530;DHT22;3806;52.270;10.544;2022-12-04T15:09:57;2.60;99.90
7530;DHT22;3806;52.270;10.544;2022-12-04T15:12:53;2.60;99.90
7530;DHT22;3806;52.270;10.544;2022-12-04T15:15:25;2.70;99.90
7530;DHT22;3806;52.270;10.544;2022-12-04T15:18:12;2.60;99.90
7530;DHT22;3806;52.270;10.544;2022-12-04T15:21:04;2.60;99.90
7530;DHT22;3806;52.270;10.544;2022-12-04T15:23:37;2.60;99.90
7530;DHT22;3806;52.270;10.544;2022-12-04T15:26:16;2.60;99.90
7530;DHT22;3806;52.270;10.544;2022-12-04T15:28:58;2.60;99.90
7530;DHT22;3806;52.270;10.544;2022-12-04T15:31:28;2.60;99.90
7530;DHT22;3806;52.270;10.544;2022-12-04T15:34:00;2.60;99.90
7530;DHT22;3806;52.270;10.544;2022-12-04T15:39:21;2.60;99.90
7530;DHT22;3806;52.270;10.544;2022-12-04T15:41:47;2.60;99.90
7530;DHT22;3806;52.270;10.544;2022-12-04T15:44:26;2.60;99.90
7530;DHT22;3806;52.270;10.544;2022-12-04T15:46:54;2.60;99.90
7530;DHT22;3806;52.270;10.544;2022-12-04T15:49:25;2.60;99.90
7530;DHT22;3806;52.270;10.544;2022-12-04T15:52:23;2.60;99.90
7530;DHT22;3806;52.270;10.544;2022-12-04T15:54:55;2.60;99.90
7530;DHT22;3806;52.270;10.544;2022-12-04T15:57:42;2.60;99.90
7530;DHT22;3806;52.270;10.544;2022-12-04T16:02:49;2.60;99.90
7530;DHT22;3806;52.270;10.544;2022-12-04T16:07:58;2.60;99.90
7530;DHT22;3806;52.270;10.544;2022-12-04T16:10:32;2.60;99.90
7530;DHT22;3806;52.270;10.544;2022-12-04T16:13:00;2.50;99.90
7530;DHT22;3806;52.270;10.544;2022-12-04T16:15:38;2.50;99.90
7530;DHT22;3806;52.270;10.544;2022-12-04T16:18:05;2.50;99.90
7530;DHT22;3806;52.270;10.544;2022-12-04T16:20:35;2.50;99.90
7530;DHT22;3806;52.270;10.544;2022-12-04T16:23:02;2.50;99.90
7530;DHT22;3806;52.270;10.544;2022-12-04T16:25:28;2.50;99.90
7530;DHT22;3806;52.270;10.544;2022-12-04T16:28:00;2.50;99.90
7530;DHT22;3806;52.270;10.544;2022-12-04T16:30:36;2.50;99.90
7530;DHT22;3806;52.270;10.544;2022-12-04T16:33:02;2.50;99.90
7530;DHT22;3806;52.270;10.544;2022-12-04T16:35:27;2.50;99.90
7530;DHT22;3806;52.270;10.544;2022-12-04T16:37:55;2.50;99.90
7530;DHT22;3806;52.270;10.544;2022-12-04T16:40:21;2.50;99.90
7530;DHT22;3806;52.270;10.544;2022-12-04T16:42:47;2.50;99.90
7530;DHT22;3806;52.270;10.544;2022-12-04T16:45:32;2.50;99.90
7530;DHT22;3806;52.270;10.544;2022-12-04T16:47:59;2.60;99.90
7530;DHT22;3806;52.270;10.544;2022-12-04T16:50:26;2.50;99.90
7530;DHT22;3806;52.270;10.544;2022-12-04T16:52:52;2.50;99.90
7530;DHT22;3806;52.270;10.544;2022-12-04T16:55:27;2.50;99.90
7530;DHT22;3806;52.270;10.544;2022-12-04T16:57:53;2.50;99.90
7530;DHT22;3806;52.270;10.544;2022-12-04T17:00:19;2.50;99.90
7530;DHT22;3806;52.270;10.544;2022-12-04T17:02:44;2.50;99.90
7530;DHT22;3806;52.270;10.544;2022-12-04T17:05:18;2.50;99.90
7530;DHT22;3806;52.270;10.544;2022-12-04T17:07:44;2.60;99.90
7530;DHT22;3806;52.270;10.544;2022-12-04T17:10:10;2.60;99.90
7530;DHT22;3806;52.270;10.544;2022-12-04T17:12:38;2.60;99.90
7530;DHT22;3806;52.270;10.544;2022-12-04T17:15:03;2.60;99.90
7530;DHT22;3806;52.270;10.544;2022-12-04T17:17:29;2.70;99.90
7530;DHT22;3806;52.270;10.544;2022-12-04T17:19:55;2.70;99.90
7530;DHT22;3806;52.270;10.544;2022-12-04T17:22:20;2.70;99.90
7530;DHT22;3806;52.270;10.544;2022-12-04T17:24:54;2.70;99.90
7530;DHT22;3806;52.270;10.544;2022-12-04T17:27:20;2.80;99.90
7530;DHT22;3806;52.270;10.544;2022-12-04T17:29:46;2.70;99.90
7530;DHT22;3806;52.270;10.544;2022-12-04T17:32:12;2.70;99.90
7530;DHT22;3806;52.270;10.544;2022-12-04T17:34:38;2.70;99.90
7530;DHT22;3806;52.270;10.544;2022-12-04T17:37:03;2.70;99.90
7530;DHT22;3806;52.270;10.544;2022-12-04T17:39:29;2.70;99.90
7530;DHT22;3806;52.270;10.544;2022-12-04T17:41:54;2.70;99.90
7530;DHT22;3806;52.270;10.544;2022-12-04T17:44:20;2.80;99.90
7530;DHT22;3806;52.270;10.544;2022-12-04T17:46:46;2.80;99.90
7530;DHT22;3806;52.270;10.544;2022-12-04T17:49:12;2.90;99.90
7530;DHT22;3806;52.270;10.544;2022-12-04T17:51:37;2.80;99.90
7530;DHT22;3806;52.270;10.544;2022-12-04T17:54:05;2.90;99.90
7530;DHT22;3806;52.270;10.544;2022-12-04T17:56:31;2.90;99.90
7530;DHT22;3806;52.270;10.544;2022-12-04T17:58:56;2.90;99.90
7530;DHT22;3806;52.270;10.544;2022-12-04T18:01:25;2.90;99.90
7530;DHT22;3806;52.270;10.544;2022-12-04T18:04:03;2.90;99.90
7530;DHT22;3806;52.270;10.544;2022-12-04T18:06:31;2.90;99.90
7530;DHT22;3806;52.270;10.544;2022-12-04T18:08:58;2.90;99.90
7530;DHT22;3806;52.270;10.544;2022-12-04T18:11:26;2.90;99.90
7530;DHT22;3806;52.270;10.544;2022-12-04T18:13:57;2.90;99.90
7530;DHT22;3806;52.270;10.544;2022-12-04T18:16:24;2.90;99.90
7530;DHT22;3806;52.270;10.544;2022-12-04T18:18:53;2.90;99.90
7530;DHT22;3806;52.270;10.544;2022-12-04T18:21:19;2.90;99.90
7530;DHT22;3806;52.270;10.544;2022-12-04T18:23:45;2.90;99.90
7530;DHT22;3806;52.270;10.544;2022-12-04T18:26:13;3.00;99.90
7530;DHT22;3806;52.270;10.544;2022-12-04T18:28:39;3.00;99.90
7530;DHT22;3806;52.270;10.544;2022-12-04T18:31:06;3.00;99.90
7530;DHT22;3806;52.270;10.544;2022-12-04T18:33:33;3.00;99.90
7530;DHT22;3806;52.270;10.544;2022-12-04T18:35:59;3.00;99.90
7530;DHT22;3806;52.270;10.544;2022-12-04T18:38:27;3.00;99.90
7530;DHT22;3806;52.270;10.544;2022-12-04T18:40:54;3.00;99.90
7530;DHT22;3806;52.270;10.544;2022-12-04T18:43:20;3.00;99.90
7530;DHT22;3806;52.270;10.544;2022-12-04T18:45:46;3.00;99.90
7530;DHT22;3806;52.270;10.544;2022-12-04T18:48:20;3.00;99.90
7530;DHT22;3806;52.270;10.544;2022-12-04T18:50:47;3.00;99.90
7530;DHT22;3806;52.270;10.544;2022-12-04T18:53:12;3.10;99.90
7530;DHT22;3806;52.270;10.544;2022-12-04T18:55:38;3.00;99.90
7530;DHT22;3806;52.270;10.544;2022-12-04T18:58:03;3.00;99.90
7530;DHT22;3806;52.270;10.544;2022-12-04T19:00:30;3.00;99.90
7530;DHT22;3806;52.270;10.544;2022-12-04T19:02:56;3.10;99.90
7530;DHT22;3806;52.270;10.544;2022-12-04T19:05:21;3.00;99.90
7530;DHT22;3806;52.270;10.544;2022-12-04T19:07:47;3.00;99.90
7530;DHT22;3806;52.270;10.544;2022-12-04T19:10:14;3.00;99.90
7530;DHT22;3806;52.270;10.544;2022-12-04T19:12:40;3.00;99.90
7530;DHT22;3806;52.270;10.544;2022-12-04T19:15:06;3.00;99.90
7530;DHT22;3806;52.270;10.544;2022-12-04T19:17:31;3.00;99.90
7530;DHT22;3806;52.270;10.544;2022-12-04T19:19:57;3.00;99.90
7530;DHT22;3806;52.270;10.544;2022-12-04T19:22:22;2.90;99.90
7530;DHT22;3806;52.270;10.544;2022-12-04T19:24:48;3.00;99.90
7530;DHT22;3806;52.270;10.544;2022-12-04T19:27:14;3.00;99.90
7530;DHT22;3806;52.270;10.544;2022-12-04T19:29:41;3.10;99.90
7530;DHT22;3806;52.270;10.544;2022-12-04T19:32:08;3.00;99.90
7530;DHT22;3806;52.270;10.544;2022-12-04T19:34:34;3.00;99.90
7530;DHT22;3806;52.270;10.544;2022-12-04T19:37:00;3.00;99.90
7530;DHT22;3806;52.270;10.544;2022-12-04T19:39:26;3.00;99.90
7530;DHT22;3806;52.270;10.544;2022-12-04T19:41:52;3.00;99.90
7530;DHT22;3806;52.270;10.544;2022-12-04T19:44:18;3.00;99.90
7530;DHT22;3806;52.270;10.544;2022-12-04T19:46:46;3.00;99.90
7530;DHT22;3806;52.270;10.544;2022-12-04T19:49:12;3.00;99.90
7530;DHT22;3806;52.270;10.544;2022-12-04T19:51:38;3.00;99.90
7530;DHT22;3806;52.270;10.544;2022-12-04T19:54:11;3.00;99.90
7530;DHT22;3806;52.270;10.544;2022-12-04T19:56:37;3.00;99.90
7530;DHT22;3806;52.270;10.544;2022-12-04T19:59:05;3.10;99.90
7530;DHT22;3806;52.270;10.544;2022-12-04T20:01:32;3.00;99.90
7530;DHT22;3806;52.270;10.544;2022-12-04T20:04:01;3.10;99.90
7530;DHT22;3806;52.270;10.544;2022-12-04T20:06:28;3.10;99.90
7530;DHT22;3806;52.270;10.544;2022-12-04T20:08:56;3.10;99.90
7530;DHT22;3806;52.270;10.544;2022-12-04T20:11:22;3.10;99.90
7530;DHT22;3806;52.270;10.544;2022-12-04T20:13:48;3.10;99.90
7530;DHT22;3806;52.270;10.544;2022-12-04T20:16:16;3.10;99.90
7530;DHT22;3806;52.270;10.544;2022-12-04T20:18:43;3.10;99.90
7530;DHT22;3806;52.270;10.544;2022-12-04T20:21:10;3.10;99.90
7530;DHT22;3806;52.270;10.544;2022-12-04T20:23:44;3.10;99.90
7530;DHT22;3806;52.270;10.544;2022-12-04T20:26:16;3.00;99.90
7530;DHT22;3806;52.270;10.544;2022-12-04T20:28:42;3.00;99.90
7530;DHT22;3806;52.270;10.544;2022-12-04T20:31:11;3.00;99.90
7530;DHT22;3806;52.270;10.544;2022-12-04T20:33:37;3.10;99.90
7530;DHT22;3806;52.270;10.544;2022-12-04T20:36:03;3.10;99.90
7530;DHT22;3806;52.270;10.544;2022-12-04T20:38:29;3.10;99.90
7530;DHT22;3806;52.270;10.544;2022-12-04T20:40:54;3.10;99.90
7530;DHT22;3806;52.270;10.544;2022-12-04T20:43:20;3.20;99.90
7530;DHT22;3806;52.270;10.544;2022-12-04T20:45:45;3.10;99.90
7530;DHT22;3806;52.270;10.544;2022-12-04T20:48:11;3.10;99.90
7530;DHT22;3806;52.270;10.544;2022-12-04T20:50:36;3.10;99.90
7530;DHT22;3806;52.270;10.544;2022-12-04T20:53:04;3.20;99.90
7530;DHT22;3806;52.270;10.544;2022-12-04T20:55:29;3.10;99.90
7530;DHT22;3806;52.270;10.544;2022-12-04T20:57:55;3.20;99.90
7530;DHT22;3806;52.270;10.544;2022-12-04T21:00:22;3.20;99.90
7530;DHT22;3806;52.270;10.544;2022-12-04T21:02:47;3.30;99.90
7530;DHT22;3806;52.270;10.544;2022-12-04T21:05:13;3.30;99.90
7530;DHT22;3806;52.270;10.544;2022-12-04T21:07:38;3.30;99.90
7530;DHT22;3806;52.270;10.544;2022-12-04T21:10:04;3.30;99.90
7530;DHT22;3806;52.270;10.544;2022-12-04T21:12:31;3.40;99.90
7530;DHT22;3806;52.270;10.544;2022-12-04T21:15:16;3.30;99.90
7530;DHT22;3806;52.270;10.544;2022-12-04T21:18:00;3.30;99.90
7530;DHT22;3806;52.270;10.544;2022-12-04T21:20:26;3.30;99.90
7530;DHT22;3806;52.270;10.544;2022-12-04T21:22:51;3.30;99.90
7530;DHT22;3806;52.270;10.544;2022-12-04T21:25:17;3.30;99.90
7530;DHT22;3806;52.270;10.544;2022-12-04T21:27:43;3.30;99.90